Ukiah Municipal Airport
KUKI : now visible

Airfield :











YOU CAN JOIN US ON...

 
LOGIN :

Register | Disclaimer

   EN    FR    IT 

 









Legend :    VFR   Marginal VFR   IFR   Intensive IFR   Very Intensive IFR
Visi :
Ceiling :
>= 8 km
>= 3000ft
5 to 8 km
1000 to 3000 ft
1500m to 5 km
500 to 1000 ft
800 to 1500m
200 to 500 ft
< 800m
< 200 ft
Symbols :   Thunderstorms  Fog  Heavy snow  Heavy precipitations  Wind > 20 kt






- Airport Elevation : 614 ft


KUKI - Ukiah Municipal

CURRENT METAR :
  • 150756Z AUTO 03004KT 10SM FEW038 06/04 A3007 RMK AO2 SLP182 T00560039 401220050

EXPIRED METARs :
  • 150656Z AUTO 00000KT 10SM CLR 06/04 A3007 RMK AO2 SLP180 T00560039
  • 150556Z AUTO 01003KT 10SM SCT038 BKN055 07/04 A3005 RMK AO2 RAE51 SLP175 P0004 60025 T00670039 10100 20067 51011

TAF KUKI
Valid from the 15 at 06:00 until the 16 at 06:00 UTC


150541Z 1506/1606 30006KT 6SM -RA SCT035 BKN045
FM150900 34003KT P6SM VCSH SCT035 BKN060
FM151500 34004KT P6SM SCT060
FM160200 VRB03KT P6SM BKN250



MET'MAP, your aeronautical weather chart ! - Copyright ORBIFLY December 2007 - Disclaimer

ORBIFLY MET'MAP TEAM :

Programming & Development : Alexandra Zaïnal
Concept & original design : Baudouin d'Aumeries
Assistance for programming : Marc-Olivier Méhu
Technical & hardware support : Manuel Goepfert

Contact : metmap@orbifly.com




SOURCES & CREDITS :

   NOAA       Earth
Advisory